sensor_id;sensor_type;location;lat;lon;timestamp;pressure;altitude;pressure_sealevel;temperature;humidity
36834;BME280;48003;52.084;5.224;2023-02-19T00:00:50;101805.0;;;12.7;89.45
36834;BME280;48003;52.084;5.224;2023-02-19T00:02:27;101799.0;;;12.92;88.13
36834;BME280;48003;52.084;5.224;2023-02-19T00:05:42;101803.0;;;12.81;88.45
36834;BME280;48003;52.084;5.224;2023-02-19T00:07:18;101809.0;;;12.43;90.86
36834;BME280;48003;52.084;5.224;2023-02-19T00:08:56;101803.0;;;12.73;88.96
36834;BME280;48003;52.084;5.224;2023-02-19T00:10:33;101814.0;;;12.73;89.17
36834;BME280;48003;52.084;5.224;2023-02-19T00:13:48;101810.0;;;12.69;89.13
36834;BME280;48003;52.084;5.224;2023-02-19T00:15:26;101818.0;;;12.3;90.2
36834;BME280;48003;52.084;5.224;2023-02-19T00:17:02;101814.0;;;12.67;89.42
36834;BME280;48003;52.084;5.224;2023-02-19T00:20:15;101820.0;;;12.74;88.91
36834;BME280;48003;52.084;5.224;2023-02-19T00:21:52;101819.0;;;12.71;88.9
36834;BME280;48003;52.084;5.224;2023-02-19T00:23:30;101828.0;;;12.56;89.52
36834;BME280;48003;52.084;5.224;2023-02-19T00:26:44;101830.0;;;12.56;89.3
36834;BME280;48003;52.084;5.224;2023-02-19T00:28:21;101826.0;;;12.64;89.35
36834;BME280;48003;52.084;5.224;2023-02-19T00:29:58;101827.0;;;12.74;88.89
36834;BME280;48003;52.084;5.224;2023-02-19T00:31:34;101827.0;;;12.67;89.05
36834;BME280;48003;52.084;5.224;2023-02-19T00:34:48;101824.0;;;12.55;89.73
36834;BME280;48003;52.084;5.224;2023-02-19T00:36:25;101827.0;;;12.42;89.82
36834;BME280;48003;52.084;5.224;2023-02-19T00:38:03;101828.0;;;12.5;89.72
36834;BME280;48003;52.084;5.224;2023-02-19T00:41:20;101830.0;;;12.65;88.99
36834;BME280;48003;52.084;5.224;2023-02-19T00:42:58;101828.0;;;12.46;89.52
36834;BME280;48003;52.084;5.224;2023-02-19T00:44:34;101830.0;;;12.29;90.63
36834;BME280;48003;52.084;5.224;2023-02-19T00:46:10;101835.0;;;12.42;90.58
36834;BME280;48003;52.084;5.224;2023-02-19T00:49:23;101841.0;;;12.32;90.72
36834;BME280;48003;52.084;5.224;2023-02-19T00:50:59;101834.0;;;12.4;90.35
36834;BME280;48003;52.084;5.224;2023-02-19T00:52:36;101834.0;;;12.39;89.7
36834;BME280;48003;52.084;5.224;2023-02-19T00:55:49;101830.0;;;12.46;89.61
36834;BME280;48003;52.084;5.224;2023-02-19T00:57:26;101831.0;;;12.28;90.68
36834;BME280;48003;52.084;5.224;2023-02-19T00:59:03;101835.0;;;12.6;89.18
36834;BME280;48003;52.084;5.224;2023-02-19T01:02:16;101839.0;;;12.52;89.31
36834;BME280;48003;52.084;5.224;2023-02-19T01:03:53;101840.0;;;12.56;88.87
36834;BME280;48003;52.084;5.224;2023-02-19T01:05:30;101842.0;;;12.46;88.83
36834;BME280;48003;52.084;5.224;2023-02-19T01:07:06;101851.0;;;12.68;88.02
36834;BME280;48003;52.084;5.224;2023-02-19T01:10:21;101846.0;;;12.73;87.86
36834;BME280;48003;52.084;5.224;2023-02-19T01:11:57;101850.0;;;12.6;87.98
36834;BME280;48003;52.084;5.224;2023-02-19T01:13:34;101850.0;;;12.39;88.52
36834;BME280;48003;52.084;5.224;2023-02-19T01:16:47;101849.0;;;12.59;88.0
36834;BME280;48003;52.084;5.224;2023-02-19T01:18:23;101856.0;;;12.65;87.86
36834;BME280;48003;52.084;5.224;2023-02-19T01:19:59;101855.0;;;12.38;88.07
36834;BME280;48003;52.084;5.224;2023-02-19T01:23:12;101856.0;;;12.39;87.91
36834;BME280;48003;52.084;5.224;2023-02-19T01:24:49;101857.0;;;12.46;87.79
36834;BME280;48003;52.084;5.224;2023-02-19T01:26:27;101860.0;;;12.65;87.28
36834;BME280;48003;52.084;5.224;2023-02-19T01:28:05;101860.0;;;12.63;87.23
36834;BME280;48003;52.084;5.224;2023-02-19T01:31:21;101867.0;;;12.75;86.54
36834;BME280;48003;52.084;5.224;2023-02-19T01:32:57;101865.0;;;12.66;86.36
36834;BME280;48003;52.084;5.224;2023-02-19T01:34:34;101864.0;;;12.7;86.34
36834;BME280;48003;52.084;5.224;2023-02-19T01:37:48;101863.0;;;12.67;86.32
36834;BME280;48003;52.084;5.224;2023-02-19T01:39:25;101864.0;;;12.8;85.98
36834;BME280;48003;52.084;5.224;2023-02-19T01:41:04;101864.0;;;12.78;85.94
36834;BME280;48003;52.084;5.224;2023-02-19T01:42:43;101871.0;;;12.71;85.86
36834;BME280;48003;52.084;5.224;2023-02-19T01:47:04;101865.0;;;12.69;85.8
36834;BME280;48003;52.084;5.224;2023-02-19T01:50:19;101868.0;;;12.57;85.8
36834;BME280;48003;52.084;5.224;2023-02-19T01:51:59;101868.0;;;12.61;86.05
36834;BME280;48003;52.084;5.224;2023-02-19T01:53:41;101867.0;;;12.56;85.74
36834;BME280;48003;52.084;5.224;2023-02-19T01:55:19;101867.0;;;12.57;85.58
36834;BME280;48003;52.084;5.224;2023-02-19T01:58:35;101864.0;;;12.54;86.48
36834;BME280;48003;52.084;5.224;2023-02-19T02:01:52;101872.0;;;12.62;85.6
36834;BME280;48003;52.084;5.224;2023-02-19T02:03:29;101864.0;;;12.7;85.33
36834;BME280;48003;52.084;5.224;2023-02-19T02:06:53;101862.0;;;12.73;85.27
36834;BME280;48003;52.084;5.224;2023-02-19T02:10:19;101866.0;;;12.51;86.08
36834;BME280;48003;52.084;5.224;2023-02-19T02:11:56;101872.0;;;12.73;84.7
36834;BME280;48003;52.084;5.224;2023-02-19T02:15:12;101864.0;;;12.52;85.33
36834;BME280;48003;52.084;5.224;2023-02-19T02:16:54;101867.0;;;12.6;84.89
36834;BME280;48003;52.084;5.224;2023-02-19T02:18:41;101865.0;;;12.66;84.54
36834;BME280;48003;52.084;5.224;2023-02-19T02:20:35;101863.0;;;12.5;84.83
36834;BME280;48003;52.084;5.224;2023-02-19T02:22:31;101871.0;;;12.43;84.93
36834;BME280;48003;52.084;5.224;2023-02-19T02:26:27;101871.0;;;12.42;84.95
36834;BME280;48003;52.084;5.224;2023-02-19T02:28:38;101877.0;;;12.38;85.21
36834;BME280;48003;52.084;5.224;2023-02-19T02:30:30;101869.0;;;12.48;85.02
36834;BME280;48003;52.084;5.224;2023-02-19T02:32:16;101872.0;;;12.42;84.99
36834;BME280;48003;52.084;5.224;2023-02-19T02:33:58;101878.0;;;12.52;84.83
36834;BME280;48003;52.084;5.224;2023-02-19T02:35:43;101873.0;;;12.38;85.28
36834;BME280;48003;52.084;5.224;2023-02-19T02:37:22;101874.0;;;12.6;84.62
36834;BME280;48003;52.084;5.224;2023-02-19T02:39:08;101878.0;;;12.41;85.13
36834;BME280;48003;52.084;5.224;2023-02-19T02:42:27;101876.0;;;12.37;85.46
36834;BME280;48003;52.084;5.224;2023-02-19T02:44:03;101885.0;;;12.27;86.01
36834;BME280;48003;52.084;5.224;2023-02-19T02:45:41;101876.0;;;12.31;86.09
36834;BME280;48003;52.084;5.224;2023-02-19T02:49:23;101881.0;;;12.35;86.1
36834;BME280;48003;52.084;5.224;2023-02-19T02:51:07;101887.0;;;12.39;86.07
36834;BME280;48003;52.084;5.224;2023-02-19T02:55:09;101889.0;;;12.35;86.26
36834;BME280;48003;52.084;5.224;2023-02-19T02:56:49;101890.0;;;12.38;86.49
36834;BME280;48003;52.084;5.224;2023-02-19T02:58:27;101900.0;;;12.37;86.24
36834;BME280;48003;52.084;5.224;2023-02-19T03:00:05;101886.0;;;12.27;86.64
36834;BME280;48003;52.084;5.224;2023-02-19T03:04:02;101888.0;;;12.29;86.5
36834;BME280;48003;52.084;5.224;2023-02-19T03:06:00;101890.0;;;12.15;86.9
36834;BME280;48003;52.084;5.224;2023-02-19T03:07:42;101888.0;;;12.01;87.49
36834;BME280;48003;52.084;5.224;2023-02-19T03:09:24;101895.0;;;12.06;87.34
36834;BME280;48003;52.084;5.224;2023-02-19T03:19:24;101893.0;;;12.07;86.34
36834;BME280;48003;52.084;5.224;2023-02-19T03:21:03;101905.0;;;12.0;86.71
36834;BME280;48003;52.084;5.224;2023-02-19T03:26:11;101909.0;;;11.97;86.83
36834;BME280;48003;52.084;5.224;2023-02-19T03:27:49;101907.0;;;11.96;87.58
36834;BME280;48003;52.084;5.224;2023-02-19T03:29:30;101906.0;;;11.88;87.71
36834;BME280;48003;52.084;5.224;2023-02-19T03:32:50;101911.0;;;11.93;87.49
36834;BME280;48003;52.084;5.224;2023-02-19T03:34:31;101910.0;;;12.03;87.15
36834;BME280;48003;52.084;5.224;2023-02-19T03:36:13;101919.0;;;11.93;87.02
36834;BME280;48003;52.084;5.224;2023-02-19T03:38:02;101913.0;;;12.0;86.86
36834;BME280;48003;52.084;5.224;2023-02-19T03:39:43;101925.0;;;11.99;87.17
36834;BME280;48003;52.084;5.224;2023-02-19T03:43:12;101924.0;;;11.95;87.35
36834;BME280;48003;52.084;5.224;2023-02-19T03:45:10;101922.0;;;11.9;88.16
36834;BME280;48003;52.084;5.224;2023-02-19T03:46:55;101919.0;;;11.95;88.24
36834;BME280;48003;52.084;5.224;2023-02-19T03:48:36;101920.0;;;12.04;88.16
36834;BME280;48003;52.084;5.224;2023-02-19T03:50:18;101925.0;;;12.02;87.97
36834;BME280;48003;52.084;5.224;2023-02-19T03:53:50;101925.0;;;11.87;87.97
36834;BME280;48003;52.084;5.224;2023-02-19T03:55:31;101932.0;;;11.94;87.9
36834;BME280;48003;52.084;5.224;2023-02-19T03:57:19;101938.0;;;11.77;88.55
36834;BME280;48003;52.084;5.224;2023-02-19T03:59:00;101940.0;;;11.71;89.11
36834;BME280;48003;52.084;5.224;2023-02-19T04:00:47;101951.0;;;11.72;89.11
36834;BME280;48003;52.084;5.224;2023-02-19T04:04:15;101950.0;;;11.88;88.7
36834;BME280;48003;52.084;5.224;2023-02-19T04:05:58;101955.0;;;11.86;88.77
36834;BME280;48003;52.084;5.224;2023-02-19T04:07:41;101946.0;;;11.86;88.57
36834;BME280;48003;52.084;5.224;2023-02-19T04:09:23;101955.0;;;11.8;88.77
36834;BME280;48003;52.084;5.224;2023-02-19T04:12:42;101958.0;;;11.83;88.77
36834;BME280;48003;52.084;5.224;2023-02-19T04:14:24;101955.0;;;12.03;88.04
36834;BME280;48003;52.084;5.224;2023-02-19T04:16:06;101953.0;;;11.89;88.25
36834;BME280;48003;52.084;5.224;2023-02-19T04:17:59;101962.0;;;11.79;88.83
36834;BME280;48003;52.084;5.224;2023-02-19T04:19:40;101963.0;;;11.78;88.74
36834;BME280;48003;52.084;5.224;2023-02-19T04:22:57;101965.0;;;11.66;89.13
36834;BME280;48003;52.084;5.224;2023-02-19T04:24:38;101972.0;;;11.69;89.11
36834;BME280;48003;52.084;5.224;2023-02-19T04:26:19;101970.0;;;11.77;89.01
36834;BME280;48003;52.084;5.224;2023-02-19T04:27:58;101975.0;;;11.71;88.8
36834;BME280;48003;52.084;5.224;2023-02-19T04:31:12;101969.0;;;11.69;89.03
36834;BME280;48003;52.084;5.224;2023-02-19T04:32:49;101973.0;;;11.67;89.12
36834;BME280;48003;52.084;5.224;2023-02-19T04:34:26;101980.0;;;11.81;88.74
36834;BME280;48003;52.084;5.224;2023-02-19T04:37:42;101982.0;;;11.77;88.67
36834;BME280;48003;52.084;5.224;2023-02-19T04:39:20;101984.0;;;11.71;88.86
36834;BME280;48003;52.084;5.224;2023-02-19T04:40:57;101997.0;;;11.69;88.97
36834;BME280;48003;52.084;5.224;2023-02-19T04:42:33;101999.0;;;11.68;88.93
36834;BME280;48003;52.084;5.224;2023-02-19T04:45:47;102001.0;;;11.73;88.57
36834;BME280;48003;52.084;5.224;2023-02-19T04:47:24;102005.0;;;11.81;88.4
36834;BME280;48003;52.084;5.224;2023-02-19T04:49:00;102013.0;;;11.71;88.47
36834;BME280;48003;52.084;5.224;2023-02-19T04:52:15;102011.0;;;11.84;87.89
36834;BME280;48003;52.084;5.224;2023-02-19T04:53:52;102016.0;;;11.94;87.41
36834;BME280;48003;52.084;5.224;2023-02-19T04:55:28;102032.0;;;11.9;87.63
36834;BME280;48003;52.084;5.224;2023-02-19T04:58:42;102039.0;;;11.79;87.77
36834;BME280;48003;52.084;5.224;2023-02-19T05:00:19;102035.0;;;11.72;87.72
36834;BME280;48003;52.084;5.224;2023-02-19T05:01:57;102041.0;;;11.82;87.35
36834;BME280;48003;52.084;5.224;2023-02-19T05:03:34;102033.0;;;11.87;87.21
36834;BME280;48003;52.084;5.224;2023-02-19T05:06:48;102034.0;;;11.78;87.21
36834;BME280;48003;52.084;5.224;2023-02-19T05:08:25;102038.0;;;11.81;86.79
36834;BME280;48003;52.084;5.224;2023-02-19T05:10:01;102037.0;;;11.83;86.62
36834;BME280;48003;52.084;5.224;2023-02-19T05:13:14;102045.0;;;11.82;86.38
36834;BME280;48003;52.084;5.224;2023-02-19T05:14:50;102039.0;;;11.84;86.09
36834;BME280;48003;52.084;5.224;2023-02-19T05:16:27;102043.0;;;11.82;85.77
36834;BME280;48003;52.084;5.224;2023-02-19T05:18:04;102047.0;;;11.76;85.85
36834;BME280;48003;52.084;5.224;2023-02-19T05:21:17;102052.0;;;11.68;85.52
36834;BME280;48003;52.084;5.224;2023-02-19T05:22:54;102055.0;;;11.74;85.64
36834;BME280;48003;52.084;5.224;2023-02-19T05:24:31;102062.0;;;11.72;85.44
36834;BME280;48003;52.084;5.224;2023-02-19T05:27:48;102057.0;;;11.76;84.93
36834;BME280;48003;52.084;5.224;2023-02-19T05:29:24;102058.0;;;11.67;84.92
36834;BME280;48003;52.084;5.224;2023-02-19T05:31:04;102057.0;;;11.69;84.59
36834;BME280;48003;52.084;5.224;2023-02-19T05:32:42;102065.0;;;11.64;84.64
36834;BME280;48003;52.084;5.224;2023-02-19T05:35:55;102062.0;;;11.65;84.7
36834;BME280;48003;52.084;5.224;2023-02-19T05:37:31;102061.0;;;11.71;84.37
36834;BME280;48003;52.084;5.224;2023-02-19T05:39:10;102065.0;;;11.64;84.23
36834;BME280;48003;52.084;5.224;2023-02-19T05:42:24;102058.0;;;11.73;84.38
36834;BME280;48003;52.084;5.224;2023-02-19T05:44:00;102060.0;;;11.75;83.95
36834;BME280;48003;52.084;5.224;2023-02-19T05:45:38;102062.0;;;11.72;83.91
36834;BME280;48003;52.084;5.224;2023-02-19T05:48:52;102059.0;;;11.65;83.88
36834;BME280;48003;52.084;5.224;2023-02-19T05:50:31;102060.0;;;11.81;83.65
36834;BME280;48003;52.084;5.224;2023-02-19T05:52:08;102061.0;;;11.97;83.15
36834;BME280;48003;52.084;5.224;2023-02-19T05:53:45;102062.0;;;11.99;82.73
36834;BME280;48003;52.084;5.224;2023-02-19T05:56:59;102061.0;;;11.77;83.14
36834;BME280;48003;52.084;5.224;2023-02-19T05:58:35;102067.0;;;11.84;83.23
36834;BME280;48003;52.084;5.224;2023-02-19T06:00:14;102074.0;;;11.9;83.08
36834;BME280;48003;52.084;5.224;2023-02-19T06:03:29;102072.0;;;11.94;82.89
36834;BME280;48003;52.084;5.224;2023-02-19T06:05:07;102074.0;;;11.99;82.73
36834;BME280;48003;52.084;5.224;2023-02-19T06:06:44;102073.0;;;11.94;82.75
36834;BME280;48003;52.084;5.224;2023-02-19T06:08:21;102076.0;;;11.96;82.72
36834;BME280;48003;52.084;5.224;2023-02-19T06:11:34;102073.0;;;11.99;82.55
36834;BME280;48003;52.084;5.224;2023-02-19T06:13:11;102080.0;;;11.9;82.44
36834;BME280;48003;52.084;5.224;2023-02-19T06:14:47;102088.0;;;11.9;82.7
36834;BME280;48003;52.084;5.224;2023-02-19T06:18:02;102096.0;;;11.94;82.76
36834;BME280;48003;52.084;5.224;2023-02-19T06:19:38;102105.0;;;12.07;82.36
36834;BME280;48003;52.084;5.224;2023-02-19T06:21:15;102100.0;;;12.03;82.43
36834;BME280;48003;52.084;5.224;2023-02-19T06:22:53;102107.0;;;12.02;82.55
36834;BME280;48003;52.084;5.224;2023-02-19T06:26:09;102111.0;;;12.14;82.12
36834;BME280;48003;52.084;5.224;2023-02-19T06:27:46;102116.0;;;12.0;82.34
36834;BME280;48003;52.084;5.224;2023-02-19T06:29:23;102126.0;;;11.86;83.03
36834;BME280;48003;52.084;5.224;2023-02-19T06:32:38;102121.0;;;11.85;83.45
36834;BME280;48003;52.084;5.224;2023-02-19T06:34:15;102130.0;;;11.77;84.22
36834;BME280;48003;52.084;5.224;2023-02-19T06:35:52;102123.0;;;11.82;84.64
36834;BME280;48003;52.084;5.224;2023-02-19T06:39:05;102127.0;;;11.85;84.55
36834;BME280;48003;52.084;5.224;2023-02-19T06:40:42;102124.0;;;11.93;84.66
36834;BME280;48003;52.084;5.224;2023-02-19T06:42:18;102126.0;;;11.78;85.13
36834;BME280;48003;52.084;5.224;2023-02-19T06:43:55;102126.0;;;11.73;85.61
36834;BME280;48003;52.084;5.224;2023-02-19T06:47:10;102130.0;;;11.71;85.79
36834;BME280;48003;52.084;5.224;2023-02-19T06:48:46;102137.0;;;11.72;85.79
36834;BME280;48003;52.084;5.224;2023-02-19T06:50:23;102135.0;;;11.65;85.88
36834;BME280;48003;52.084;5.224;2023-02-19T06:53:37;102135.0;;;11.62;86.18
36834;BME280;48003;52.084;5.224;2023-02-19T06:55:14;102147.0;;;11.65;86.18
36834;BME280;48003;52.084;5.224;2023-02-19T06:56:52;102155.0;;;11.62;86.24
36834;BME280;48003;52.084;5.224;2023-02-19T06:58:29;102155.0;;;11.61;86.4
36834;BME280;48003;52.084;5.224;2023-02-19T07:01:44;102161.0;;;11.65;85.95
36834;BME280;48003;52.084;5.224;2023-02-19T07:03:22;102157.0;;;11.61;86.06
36834;BME280;48003;52.084;5.224;2023-02-19T07:04:58;102159.0;;;11.68;85.96
36834;BME280;48003;52.084;5.224;2023-02-19T07:08:12;102172.0;;;11.65;85.74
36834;BME280;48003;52.084;5.224;2023-02-19T07:09:48;102170.0;;;11.67;85.68
36834;BME280;48003;52.084;5.224;2023-02-19T07:11:25;102177.0;;;11.57;85.89
36834;BME280;48003;52.084;5.224;2023-02-19T07:13:04;102175.0;;;11.7;85.59
36834;BME280;48003;52.084;5.224;2023-02-19T07:16:17;102180.0;;;11.71;85.59
36834;BME280;48003;52.084;5.224;2023-02-19T07:17:54;102184.0;;;11.8;85.1
36834;BME280;48003;52.084;5.224;2023-02-19T07:19:31;102189.0;;;11.85;84.93
36834;BME280;48003;52.084;5.224;2023-02-19T07:22:49;102192.0;;;11.9;84.77
36834;BME280;48003;52.084;5.224;2023-02-19T07:24:26;102197.0;;;11.85;84.92
36834;BME280;48003;52.084;5.224;2023-02-19T07:26:04;102196.0;;;11.88;84.84
36834;BME280;48003;52.084;5.224;2023-02-19T07:27:43;102200.0;;;11.8;85.21
36834;BME280;48003;52.084;5.224;2023-02-19T07:30:59;102205.0;;;11.83;85.33
36834;BME280;48003;52.084;5.224;2023-02-19T07:32:39;102205.0;;;11.74;85.96
36834;BME280;48003;52.084;5.224;2023-02-19T07:34:16;102212.0;;;11.82;85.98
36834;BME280;48003;52.084;5.224;2023-02-19T07:37:29;102216.0;;;11.79;86.08
36834;BME280;48003;52.084;5.224;2023-02-19T07:39:06;102219.0;;;11.63;86.65
36834;BME280;48003;52.084;5.224;2023-02-19T07:40:49;102222.0;;;11.75;86.74
36834;BME280;48003;52.084;5.224;2023-02-19T07:42:26;102220.0;;;11.7;86.95
36834;BME280;48003;52.084;5.224;2023-02-19T07:45:39;102225.0;;;11.68;87.19
36834;BME280;48003;52.084;5.224;2023-02-19T07:47:15;102228.0;;;11.61;87.6
36834;BME280;48003;52.084;5.224;2023-02-19T07:52:04;102234.0;;;11.55;88.19
36834;BME280;48003;52.084;5.224;2023-02-19T07:53:40;102238.0;;;11.47;88.45
36834;BME280;48003;52.084;5.224;2023-02-19T07:55:17;102252.0;;;11.45;88.64
36834;BME280;48003;52.084;5.224;2023-02-19T07:58:29;102248.0;;;11.44;88.73
36834;BME280;48003;52.084;5.224;2023-02-19T08:00:08;102256.0;;;11.44;88.53
36834;BME280;48003;52.084;5.224;2023-02-19T08:03:02;102255.0;;;11.46;88.41
36834;BME280;48003;52.084;5.224;2023-02-19T08:04:38;102259.0;;;11.37;88.53
36834;BME280;48003;52.084;5.224;2023-02-19T08:06:15;102256.0;;;11.48;88.25
36834;BME280;48003;52.084;5.224;2023-02-19T08:07:53;102261.0;;;11.44;88.32
36834;BME280;48003;52.084;5.224;2023-02-19T08:13:29;102260.0;;;11.45;88.27
36834;BME280;48003;52.084;5.224;2023-02-19T08:15:07;102259.0;;;11.51;87.87
36834;BME280;48003;52.084;5.224;2023-02-19T08:16:48;102261.0;;;11.49;88.0
36834;BME280;48003;52.084;5.224;2023-02-19T08:18:27;102272.0;;;11.55;87.89
36834;BME280;48003;52.084;5.224;2023-02-19T08:20:05;102282.0;;;11.49;88.25
36834;BME280;48003;52.084;5.224;2023-02-19T08:23:20;102285.0;;;11.49;88.62
36834;BME280;48003;52.084;5.224;2023-02-19T08:24:56;102285.0;;;11.68;88.35
36834;BME280;48003;52.084;5.224;2023-02-19T08:26:33;102291.0;;;11.53;88.15
36834;BME280;48003;52.084;5.224;2023-02-19T08:29:47;102296.0;;;11.47;88.75
36834;BME280;48003;52.084;5.224;2023-02-19T08:31:23;102301.0;;;11.43;88.68
36834;BME280;48003;52.084;5.224;2023-02-19T08:33:00;102299.0;;;11.47;88.79
36834;BME280;48003;52.084;5.224;2023-02-19T08:36:13;102299.0;;;11.46;88.92
36834;BME280;48003;52.084;5.224;2023-02-19T08:37:54;102297.0;;;11.58;88.46
36834;BME280;48003;52.084;5.224;2023-02-19T08:39:31;102307.0;;;11.51;88.36
36834;BME280;48003;52.084;5.224;2023-02-19T08:41:09;102306.0;;;11.51;88.41
36834;BME280;48003;52.084;5.224;2023-02-19T08:44:24;102314.0;;;11.56;88.2
36834;BME280;48003;52.084;5.224;2023-02-19T08:46:01;102318.0;;;11.58;88.04
36834;BME280;48003;52.084;5.224;2023-02-19T08:47:38;102317.0;;;11.51;87.87
36834;BME280;48003;52.084;5.224;2023-02-19T08:50:53;102319.0;;;11.53;87.78
36834;BME280;48003;52.084;5.224;2023-02-19T08:52:31;102319.0;;;11.55;87.51
36834;BME280;48003;52.084;5.224;2023-02-19T08:54:08;102317.0;;;11.62;87.49
36834;BME280;48003;52.084;5.224;2023-02-19T08:55:44;102318.0;;;11.68;87.1
36834;BME280;48003;52.084;5.224;2023-02-19T08:58:56;102319.0;;;11.53;87.08
36834;BME280;48003;52.084;5.224;2023-02-19T09:00:32;102313.0;;;11.59;86.81
36834;BME280;48003;52.084;5.224;2023-02-19T09:02:08;102320.0;;;11.7;86.62
36834;BME280;48003;52.084;5.224;2023-02-19T09:05:21;102321.0;;;11.82;86.09
36834;BME280;48003;52.084;5.224;2023-02-19T09:06:57;102319.0;;;11.72;86.17
36834;BME280;48003;52.084;5.224;2023-02-19T09:08:33;102323.0;;;11.6;86.38
36834;BME280;48003;52.084;5.224;2023-02-19T09:11:49;102315.0;;;11.75;86.03
36834;BME280;48003;52.084;5.224;2023-02-19T09:13:26;102323.0;;;11.76;86.01
36834;BME280;48003;52.084;5.224;2023-02-19T09:15:03;102315.0;;;11.68;86.22
36834;BME280;48003;52.084;5.224;2023-02-19T09:16:40;102322.0;;;11.84;85.84
36834;BME280;48003;52.084;5.224;2023-02-19T09:19:53;102338.0;;;11.87;85.73
36834;BME280;48003;52.084;5.224;2023-02-19T09:21:30;102337.0;;;11.82;85.54
36834;BME280;48003;52.084;5.224;2023-02-19T09:23:06;102337.0;;;11.71;85.69
36834;BME280;48003;52.084;5.224;2023-02-19T09:26:20;102338.0;;;11.74;85.58
36834;BME280;48003;52.084;5.224;2023-02-19T09:27:57;102333.0;;;11.8;85.34
36834;BME280;48003;52.084;5.224;2023-02-19T09:29:34;102337.0;;;11.88;84.75
36834;BME280;48003;52.084;5.224;2023-02-19T09:31:12;102345.0;;;12.04;84.37
36834;BME280;48003;52.084;5.224;2023-02-19T09:34:28;102360.0;;;11.93;84.54
36834;BME280;48003;52.084;5.224;2023-02-19T09:36:05;102370.0;;;11.82;84.51
36834;BME280;48003;52.084;5.224;2023-02-19T09:37:42;102388.0;;;11.78;84.63
36834;BME280;48003;52.084;5.224;2023-02-19T09:40:57;102396.0;;;11.84;84.55
36834;BME280;48003;52.084;5.224;2023-02-19T09:42:42;102392.0;;;11.87;84.44
36834;BME280;48003;52.084;5.224;2023-02-19T09:44:23;102392.0;;;11.83;84.55
36834;BME280;48003;52.084;5.224;2023-02-19T09:46:08;102393.0;;;11.83;84.81
36834;BME280;48003;52.084;5.224;2023-02-19T09:48:05;102403.0;;;12.0;84.29
36834;BME280;48003;52.084;5.224;2023-02-19T09:51:30;102399.0;;;12.09;84.02
36834;BME280;48003;52.084;5.224;2023-02-19T09:53:14;102390.0;;;12.11;83.73
36834;BME280;48003;52.084;5.224;2023-02-19T09:54:59;102404.0;;;12.25;83.28
36834;BME280;48003;52.084;5.224;2023-02-19T09:56:38;102406.0;;;12.32;82.64
36834;BME280;48003;52.084;5.224;2023-02-19T10:00:19;102416.00000000001;;;12.38;82.31
36834;BME280;48003;52.084;5.224;2023-02-19T10:02:02;102417.0;;;12.24;82.22
36834;BME280;48003;52.084;5.224;2023-02-19T10:03:44;102418.0;;;12.17;81.66
36834;BME280;48003;52.084;5.224;2023-02-19T10:05:22;102426.0;;;12.36;81.47
36834;BME280;48003;52.084;5.224;2023-02-19T10:07:03;102423.0;;;12.31;81.66
36834;BME280;48003;52.084;5.224;2023-02-19T10:10:24;102427.0;;;12.49;81.16
36834;BME280;48003;52.084;5.224;2023-02-19T10:12:12;102439.00000000001;;;12.16;81.23
36834;BME280;48003;52.084;5.224;2023-02-19T10:13:52;102440.00000000001;;;12.2;81.2
36834;BME280;48003;52.084;5.224;2023-02-19T10:15:45;102442.0;;;12.22;81.02
36834;BME280;48003;52.084;5.224;2023-02-19T10:17:24;102447.0;;;12.3;81.09
36834;BME280;48003;52.084;5.224;2023-02-19T10:20:47;102445.0;;;12.08;81.19
36834;BME280;48003;52.084;5.224;2023-02-19T10:22:25;102449.0;;;12.12;81.0
36834;BME280;48003;52.084;5.224;2023-02-19T10:24:04;102452.0;;;12.06;81.19
36834;BME280;48003;52.084;5.224;2023-02-19T10:25:44;102456.0;;;12.07;80.91
36834;BME280;48003;52.084;5.224;2023-02-19T10:29:03;102450.0;;;12.08;80.89
36834;BME280;48003;52.084;5.224;2023-02-19T10:30:41;102458.99999999999;;;12.0;81.36
36834;BME280;48003;52.084;5.224;2023-02-19T10:32:23;102468.0;;;12.04;81.5
36834;BME280;48003;52.084;5.224;2023-02-19T10:34:01;102470.0;;;12.18;81.24
36834;BME280;48003;52.084;5.224;2023-02-19T10:37:32;102474.0;;;12.11;81.16
36834;BME280;48003;52.084;5.224;2023-02-19T10:39:32;102479.0;;;12.03;81.67
36834;BME280;48003;52.084;5.224;2023-02-19T10:41:18;102481.0;;;12.17;82.07
36834;BME280;48003;52.084;5.224;2023-02-19T10:42:58;102486.99999999999;;;12.09;82.59
36834;BME280;48003;52.084;5.224;2023-02-19T10:44:41;102481.0;;;12.09;83.43
36834;BME280;48003;52.084;5.224;2023-02-19T10:47:59;102481.0;;;12.02;83.52
36834;BME280;48003;52.084;5.224;2023-02-19T10:49:38;102483.99999999999;;;12.16;83.38
36834;BME280;48003;52.084;5.224;2023-02-19T10:51:29;102477.0;;;12.1;83.45
36834;BME280;48003;52.084;5.224;2023-02-19T10:53:19;102474.0;;;12.11;83.59
36834;BME280;48003;52.084;5.224;2023-02-19T10:55:14;102486.99999999999;;;12.01;83.49
36834;BME280;48003;52.084;5.224;2023-02-19T10:57:14;102488.00000000001;;;12.01;83.7
36834;BME280;48003;52.084;5.224;2023-02-19T11:01:17;102486.99999999999;;;11.94;84.03
36834;BME280;48003;52.084;5.224;2023-02-19T11:03:26;102481.0;;;11.98;83.31
36834;BME280;48003;52.084;5.224;2023-02-19T11:05:14;102477.0;;;12.03;83.71
36834;BME280;48003;52.084;5.224;2023-02-19T11:06:53;102472.0;;;12.09;83.18
36834;BME280;48003;52.084;5.224;2023-02-19T11:08:32;102473.0;;;12.15;82.98
36834;BME280;48003;52.084;5.224;2023-02-19T11:10:27;102474.0;;;12.04;82.85
36834;BME280;48003;52.084;5.224;2023-02-19T11:12:05;102473.0;;;11.9;83.16
36834;BME280;48003;52.084;5.224;2023-02-19T11:13:43;102474.0;;;11.93;83.15
36834;BME280;48003;52.084;5.224;2023-02-19T11:17:01;102473.0;;;12.08;82.49
36834;BME280;48003;52.084;5.224;2023-02-19T11:18:40;102479.0;;;12.13;82.74
36834;BME280;48003;52.084;5.224;2023-02-19T11:20:17;102483.99999999999;;;12.09;82.68
36834;BME280;48003;52.084;5.224;2023-02-19T11:23:34;102484.99999999999;;;12.12;82.76
36834;BME280;48003;52.084;5.224;2023-02-19T11:25:19;102488.00000000001;;;12.2;82.86